Angler Guide Weather for Baie Comeau -
Baie Comeau, Québec Current Weather Conditions
Enter your "Place, State", US Zip Code or ICAO:  
Forecast Information Radar Information
Baie Comeau, Québec, Canada  Lat: 49.12N, Lon: 68.2W
ICAO Used: CYYY
Current Conditions
Updated:
Sun & Moon Information:
Temp: N/A
Humidity: N/A
Wind Speed: N/A
Barometer: N/A
Dewpoint: N/A
Heat Index: N/A
Wind Chill: N/A
Civil Twilight: 6:38 AM EST
Moonrise: 12:04 AM EST Moon Phase:
Waning Crescent Moon
Waning Crescent Moon
Moonset: 12:45 PM EST
Sunrise: 7:15 AM EST
Sunset: 3:34 PM EST
Civil Twilight: 4:11 PM EST
Forecast for Baie Comeau, QC:
(Forecast based on TAF for )
0239 PM EST MON NOV 06 2006
  
AFTERNOONEVENINGOVERNIGHT
PARTLY CLOUDYPARTLY CLOUDYPARTLY CLOUDY
Partly
Cloudy
Partly
Cloudy
Partly
Cloudy
TAF based forecast:
Dated: 0239 PM EST MON NOV 06 2006
Afternoon...Partly cloudy with winds from the north east at 6 mph. Then becoming partly cloudy with winds from the south south east at 6 mph.
Evening...Becoming partly cloudy with winds from the south south east at 6 mph.
Overnight...Partly cloudy with winds from the south south east at 6 mph. Then turning partly cloudy with winds from the south at 12 mph. Possible periods of mostly cloudy.
Original Encoded TAF:
Dated: 0239 PM EST MON NOV 06 2006
2006/11/06 19:39
CYYY 061939Z 062008 03005KT P6SM FEW025 BECMG 2224 15005KT FM0600Z 18010KT P6SM SCT025 TEMPO 0608 BKN025=




Powered by Angler Guide.com
Copyright © 2007, all rights reserved.